Tiempo atmosférico en la estación meteorológica de Abia De Obispalia, Cuenca (1020 m.)



Fecha
DESCASC
Temp. máxima en grados centígrados (hora)
DESCASC
Temp. mínima en grados centígrados (hora)
DESCASC
Temp. media en grados centígrados
DESCASC
Racha de viento máxima en m/sg (hora)
DESCASC
Velocidad máxima media en intervalos de 10 minutos(hora)
DESCASC
Precipitaciones diarias en mm
DESCASC
Precipitaciones de 00:00 a 06:00 en mm
DESCASC
Precipitaciones de 06:00 a 12:00 en mm
DESCASC
Precipitaciones de 12:00 a 18:00 en mm
DESCASC
Precipitaciones de 18:00 a 24:00 en mm
DESCASC
14-12-2019 7.7 (01:40) 6.2 (08:50) 6.9 9.17 (01:20) 4.17 (12:00) 0 0 0 0 0
13-12-2019 11.1 (13:40) 6.2 (00:00) 8.7 15.28 (14:40) 7.78 (13:50) 0 0 0 0 0
12-12-2019 6.2 (23:50) -0.2 (01:30) 3 13.89 (21:10) 7.22 (19:40) 4 0 0 2.2 1.8
11-12-2019 5.6 (15:40) -2.2 (-00:0) 1.7 9.44 (15:30) 5.28 (12:10) 0.4 0 0 0.4 0
10-12-2019 13.3 (13:50) -1.7 (-00:0) 5.8 10 (00:20) 3.33 (00:20) 0 0 0 0 0
09-12-2019 9.9 (13:00) 2.3 (00:00) 6.1 6.67 (15:10) 3.89 (15:30) 0 0 0 0 0
08-12-2019 11.6 (13:00) -1.1 (-00:0) 5.3 4.72 (15:10) 3.33 (17:20) 0.4 0 0.2 0 0.2
07-12-2019 14 (14:10) -1.2 (-00:0) 6.4 3.06 (16:30) 1.39 (16:30) 0 0 0 0 0
06-12-2019 13.1 (12:40) 1 (00:00) 7.1 6.67 (11:50) 3.61 (12:50) 0 0 0 0 0
05-12-2019 13.3 (12:50) 2.7 (00:00) 8 10 (12:10) 5 (13:10) 0 0 0 0 0
04-12-2019 9 (14:20) 3.3 (00:00) 6.1 7.5 (23:30) 3.61 (15:10) 2.2 0.6 1.4 0 0.2
03-12-2019 9 (13:30) -0.4 (00:00) 4.3 8.06 (13:20) 4.44 (09:50) 1.4 0 0 0 1.4
02-12-2019 11.6 (13:40) 3.1 (00:00) 7.4 7.78 (02:30) 4.44 (15:00) 0 0 0 0 0
01-12-2019 8.5 (00:00) 2.8 (00:00) 5.6 8.33 (00:20) 3.89 (00:20) 3.8 2.6 0.2 0 1
30-11-2019 12.2 (13:10) 8.5 (00:00) 10.3 9.17 (23:30) 4.17 (22:50) 1.6 0.6 0 0 1
29-11-2019 10.5 (15:50) 7.6 (00:00) 9 7.22 (00:30) 3.61 (00:40) 1.4 0 0.4 0 1
28-11-2019 7.8 (22:20) 6 (00:00) 6.9 8.89 (05:10) 4.72 (04:40) 0.6 0 0.4 0.2 0
27-11-2019 10 (00:00) 6.9 (00:00) 8.5 10.83 (02:00) 6.11 (10:30) 1.2 1.2 0 0 0
26-11-2019 11.5 (16:00) 8.3 (00:00) 9.9 10.28 (21:30) 4.17 (20:40) 1.2 0 0 0.2 1
25-11-2019 11.7 (14:10) 5.3 (00:00) 8.5 8.61 (05:20) 4.44 (05:20) 0.6 0.4 0.2 0 0
24-11-2019 8.7 (16:20) -1.1 (-00:0) 3.8 10.56 (00:30) 5.83 (00:30) 0 0 0 0 0
23-11-2019 8.5 (14:40) 3.7 (00:00) 6.1 13.61 (11:50) 7.78 (10:00) 4 3 1 0 0
22-11-2019 9.9 (18:10) 5 (00:00) 7.4 13.61 (23:59) 6.39 (15:50) 8.8 0 1.4 7.4 0
21-11-2019 7.2 (14:00) 3.4 (00:00) 5.3 5.56 (11:10) 2.78 (03:40) 3 0 0.2 2.8 0
20-11-2019 8.3 (14:00) -3 (-00:0) 2.7 6.11 (16:50) 2.78 (14:00) 0.8 0 0 0 0.8
19-11-2019 9.4 (14:00) -3.6 (-00:0) 2.9 6.11 (13:10) 3.33 (12:40) 0 0 0 0 0
18-11-2019 8.5 (15:40) 0.8 (00:00) 4.7 11.67 (11:50) 5.83 (12:00) 0 0 0 0 0
17-11-2019 4.7 (11:40) -4.4 (-00:0) 0.1 10.83 (20:50) 4.17 (21:10) 3.6 0 0 0.4 3.2
16-11-2019 8 (13:50) -3.1 (-00:0) 2.5 8.61 (14:50) 4.44 (15:00) 0 0 0 0 0

Gráficas

Temp. máximas Temp. mínimas Temp. medias Precipitaciones Rachas de viento máximas Velocidades máximas media en intervalos de 10 minutos

Datos horarios

Fecha y hora oficial Temperatura (ºC) Velocidad del viento (km/h) Dirección del viento Racha (km/h) Dirección de racha Precipitación (mm) Presión (hPa) Tendencia (hPa) Humedad (%)
2019-12-15 23:00:00 2.7 6 Sur 9 Sur 0 -- -- 97
2019-12-15 22:00:00 2.7 5 Sur 8 Sur 0 -- -- 97
2019-12-15 21:00:00 3.2 4 Sur 9 Sur 0 -- -- 94
2019-12-15 20:00:00 4.6 3 Sur 9 Sur 0 -- -- 89
2019-12-15 19:00:00 5.8 5 Sur 9 Sur 0 -- -- 88
2019-12-15 18:00:00 7.3 3 Sudoeste 13 Oeste 0 -- -- 80
2019-12-15 17:00:00 8.2 4 Oeste 11 Noroeste 0 -- -- 77
2019-12-15 16:00:00 8.8 3 Sudoeste 13 Oeste 0 -- -- 76
2019-12-15 15:00:00 9.9 7 Oeste 19 Oeste 0 -- -- 67
2019-12-15 14:00:00 9.2 5 Oeste 19 Noroeste 0 -- -- 72
2019-12-15 13:00:00 9.2 8 Oeste 19 Oeste 0 -- -- 68
2019-12-15 12:00:00 7.8 7 Oeste 17 Oeste 0 -- -- 79
2019-12-15 11:00:00 7.2 5 Oeste 14 Oeste 0 -- -- 79
2019-12-15 10:00:00 6.5 4 Noroeste 11 Noroeste 0 -- -- 84
2019-12-15 09:00:00 5.9 2 Noroeste 8 Oeste 0 -- -- 84
2019-12-15 08:00:00 5.8 2 Oeste 11 Oeste 0 -- -- 86
2019-12-15 07:00:00 6 4 Noroeste 15 Noroeste 0 -- -- 85
2019-12-15 06:00:00 6.1 4 Noroeste 15 Noroeste 0 -- -- 87
2019-12-15 05:00:00 6.2 5 Noroeste 12 Noroeste 0 -- -- 87
2019-12-15 04:00:00 6.1 0 Calma 15 Sudoeste 0 -- -- 90
2019-12-15 03:00:00 6.2 4 Oeste 13 Oeste 0 -- -- 88
2019-12-15 02:00:00 6.1 5 Oeste 10 Oeste 0 -- -- 89
2019-12-15 01:00:00 6.3 4 Noroeste 10 Oeste 0 -- -- 89
2019-12-15 00:00:00 6.4 5 Noroeste 13 Oeste 0 -- -- 89
2019-12-14 23:00:00 6.3 5 Noroeste 11 Noroeste 0 -- -- 88
2019-12-14 22:00:00 6.2 4 Noroeste 18 Oeste 0 -- -- 90
2019-12-14 21:00:00 6.5 8 Oeste 16 Oeste 0 -- -- 89
2019-12-14 20:00:00 6.6 8 Oeste 18 Oeste 0 -- -- 88
2019-12-14 19:00:00 6.8 9 Oeste 22 Oeste 0 -- -- 85
2019-12-14 18:00:00 6.9 10 Oeste 30 Oeste 0 -- -- 81
2019-12-14 17:00:00 7 10 Oeste 27 Noroeste 0 -- -- 80
2019-12-14 16:00:00 7.4 11 Oeste 24 Oeste 0 -- -- 80
2019-12-14 15:00:00 7.4 11 Noroeste 24 Oeste 0 -- -- 82
2019-12-14 14:00:00 7.5 13 Oeste 26 Oeste 0 -- -- 80
2019-12-14 13:00:00 7.3 10 Noroeste 26 Oeste 0 -- -- 82
2019-12-14 12:00:00 6.9 15 Noroeste 28 Noroeste 0 -- -- 86
2019-12-14 11:00:00 6.8 10 Noroeste 24 Noroeste 0 -- -- 92
2019-12-14 10:00:00 6.3 12 Noroeste 22 Oeste 0 -- -- 97
2019-12-14 09:00:00 6.2 14 Noroeste 24 Noroeste 0 -- -- 95
2019-12-14 08:00:00 6.4 7 Noroeste 17 Oeste 0 -- -- 96
2019-12-14 07:00:00 6.4 4 Noroeste 21 Oeste 0 -- -- 97
2019-12-14 06:00:00 6.6 9 Oeste 21 Oeste 0 -- -- 96
2019-12-14 05:00:00 7 12 Noroeste 23 Noroeste 0 -- -- 95
2019-12-14 04:00:00 7.2 12 Noroeste 24 Noroeste 0 -- -- 95
2019-12-14 03:00:00 7.3 13 Noroeste 27 Noroeste 0 -- -- 95
2019-12-14 02:00:00 7.6 9 Noroeste 33 Noroeste 0 -- -- 95
2019-12-14 01:00:00 7.5 13 Noroeste 28 Oeste 0 -- -- 98
2019-12-14 00:00:00 7.5 13 Oeste 30 Noroeste 0 -- -- 96
2019-12-13 23:00:00 7.6 10 Oeste 27 Oeste 0 -- -- 96
2019-12-13 22:00:00 7.7 12 Noroeste 34 Noroeste 0 -- -- 94
2019-12-13 21:00:00 8.2 14 Noroeste 32 Oeste 0 -- -- 89
2019-12-13 20:00:00 9.1 19 Noroeste 43 Noroeste 0 -- -- 87
2019-12-13 19:00:00 9.7 19 Noroeste 36 Oeste 0 -- -- 86
2019-12-13 18:00:00 9.8 15 Noroeste 39 Oeste 0 -- -- 87
2019-12-13 17:00:00 10.2 15 Noroeste 41 Noroeste 0 -- -- 86
2019-12-13 16:00:00 10.3 23 Noroeste 48 Noroeste 0 -- -- 85
2019-12-13 15:00:00 10.6 28 Noroeste 55 Noroeste 0 -- -- 83
2019-12-13 14:00:00 11 24 Noroeste 53 Oeste 0 -- -- 80
2019-12-13 13:00:00 10.1 26 Noroeste 47 Oeste 0 -- -- 84
2019-12-13 12:00:00 9.6 19 Noroeste 44 Noroeste 0 -- -- 85
2019-12-13 11:00:00 8.4 20 Noroeste 45 Noroeste 0 -- -- 92
2019-12-13 10:00:00 7.8 23 Noroeste 54 Noroeste 0 -- -- 95
2019-12-13 09:00:00 7.9 23 Noroeste 44 Noroeste 0 -- -- 97
2019-12-13 08:00:00 8.1 18 Oeste 39 Oeste 0 -- -- 98
2019-12-13 07:00:00 8.3 21 Noroeste 45 Oeste 0 -- -- 99
2019-12-13 06:00:00 8.6 17 Noroeste 44 Noroeste 0 -- -- 100
2019-12-13 05:00:00 8.5 22 Noroeste 44 Oeste 0 -- -- 100
2019-12-13 04:00:00 8 19 Oeste 41 Oeste 0 -- -- 100
2019-12-13 03:00:00 7.3 18 Oeste 39 Oeste 0 -- -- 100
2019-12-13 02:00:00 7 19 Oeste 40 Oeste 0 -- -- 100
2019-12-13 01:00:00 6.5 17 Oeste 41 Oeste 0 -- -- 100
2019-12-13 00:00:00 6.2 19 Oeste 39 Oeste 0 -- -- 100
2019-12-12 23:00:00 5.9 19 Oeste 42 Oeste 0.2 -- -- 100
2019-12-12 22:00:00 5.7 18 Oeste 50 Noroeste 0 -- -- 100
2019-12-12 21:00:00 5.3 22 Oeste 45 Oeste 0.6 -- -- 100
2019-12-12 20:00:00 5 23 Oeste 46 Oeste 0.4 -- -- 100
2019-12-12 19:00:00 4.5 23 Oeste 44 Oeste 0.6 -- -- 99
2019-12-12 18:00:00 4.2 23 Oeste 42 Oeste 1 -- -- 98
2019-12-12 17:00:00 4.4 19 Oeste 44 Oeste 0.6 -- -- 97
2019-12-12 16:00:00 4.4 18 Oeste 37 Oeste 0.6 -- -- 96
2019-12-12 15:00:00 4.4 18 Oeste 35 Oeste 0 -- -- 95
2019-12-12 14:00:00 4.4 16 Oeste 34 Oeste 0 -- -- 90
2019-12-12 13:00:00 4.3 13 Oeste 31 Oeste 0 -- -- 88
2019-12-12 12:00:00 4.2 9 Noroeste 25 Oeste 0 -- -- 86
2019-12-12 11:00:00 3.1 10 Oeste 19 Oeste 0 -- -- 90
2019-12-12 10:00:00 2.3 8 Noroeste 13 Noroeste 0 -- -- 89
2019-12-12 09:00:00 1.1 6 Oeste 18 Sudoeste 0 -- -- 91
2019-12-12 08:00:00 1.3 5 Oeste 18 Oeste 0 -- -- 90
2019-12-12 07:00:00 1.3 6 Oeste 21 Oeste 0 -- -- 90
2019-12-12 06:00:00 1.7 8 Oeste 18 Oeste 0 -- -- 88
2019-12-12 05:00:00 1.5 6 Oeste 14 Oeste 0 -- -- 89
2019-12-12 04:00:00 0.7 5 Noroeste 10 Oeste 0 -- -- 91
2019-12-12 03:00:00 0.5 3 Oeste 10 Noroeste 0 -- -- 91
2019-12-12 02:00:00 0.1 5 Noroeste 12 Oeste 0 -- -- 93
2019-12-12 01:00:00 0.3 4 Oeste 10 Oeste 0 -- -- 92
2019-12-12 00:00:00 0.6 4 Noroeste 12 Oeste 0 -- -- 96
2019-12-11 23:00:00 -1 0 Calma 8 Noroeste 0 -- -- 93
2019-12-11 22:00:00 1.5 4 Noroeste 18 Noroeste 0 -- -- 89
2019-12-11 21:00:00 0.5 0 Calma 16 Noroeste 0 -- -- 92
2019-12-11 20:00:00 1.9 8 Noroeste 16 Noroeste 0 -- -- 97
2019-12-11 19:00:00 1.5 3 Noroeste 16 Noroeste 0 -- -- 95
2019-12-11 18:00:00 3 7 Noroeste 21 Noroeste 0 -- -- 94
2019-12-11 17:00:00 4 12 Norte 29 Norte 0 -- -- 92
2019-12-11 16:00:00 5.3 13 Noroeste 34 Norte 0 -- -- 87
2019-12-11 15:00:00 5.3 13 Noroeste 31 Noroeste 0 -- -- 91
2019-12-11 14:00:00 5.3 10 Noroeste 18 Noroeste 0 -- -- 92
2019-12-11 13:00:00 4.4 4 Oeste 29 Noroeste 0.4 -- -- 92
2019-12-11 12:00:00 5.3 9 Noroeste 19 Oeste 0 -- -- 83
2019-12-11 11:00:00 5.4 6 Noroeste 17 Oeste 0 -- -- 78
2019-12-11 10:00:00 3.4 0 Calma 8 Oeste 0 -- -- 89
2019-12-11 09:00:00 -1.2 0 Calma 2 Sudoeste 0 -- -- 99
2019-12-11 08:00:00 -2 0 Calma 4 Oeste 0 -- -- 97
2019-12-11 07:00:00 -2.2 0 Calma 2 Sudoeste 0 -- -- 96
2019-12-11 06:00:00 -1.9 0 Calma 3 Sudeste 0 -- -- 94
2019-12-11 05:00:00 -1.6 2 Noroeste 4 Noroeste 0 -- -- 95
2019-12-11 04:00:00 -1.7 0 Calma 2 Sudoeste 0 -- -- 92
2019-12-11 03:00:00 -1.8 0 Calma 3 Oeste 0 -- -- 90
2019-12-11 02:00:00 -1.6 0 Calma 2 Sudoeste 0 -- -- 86
2019-12-11 01:00:00 -1.6 0 Calma 2 Sudoeste 0 -- -- 87
2019-12-11 00:00:00 -1 0 Calma 2 Sudoeste 0 -- -- 83
2019-12-10 23:00:00 -0.7 0 Calma 2 Oeste 0 -- -- 85
2019-12-10 22:00:00 -0.7 0 Calma 2 Sur 0 -- -- 87
2019-12-10 21:00:00 0.1 0 Calma 4 Sudeste 0 -- -- 85
2019-12-10 20:00:00 0.9 0 Calma 3 Noroeste 0 -- -- 79
2019-12-10 19:00:00 4.5 2 Noroeste 10 Norte 0 -- -- 62
2019-12-10 18:00:00 8.1 7 Noroeste 11 Noroeste 0 -- -- 49
2019-12-10 17:00:00 10.8 8 Noroeste 14 Noroeste 0 -- -- 41
2019-12-10 16:00:00 12.3 6 Noroeste 19 Noroeste 0 -- -- 36
2019-12-10 15:00:00 12.5 10 Noroeste 18 Noroeste 0 -- -- 39
2019-12-10 14:00:00 13.2 10 Noroeste 17 Noroeste 0 -- -- 40
2019-12-10 13:00:00 12.5 5 Norte 13 Norte 0 -- -- 39
2019-12-10 12:00:00 10.4 8 Norte 20 Norte 0 -- -- 45
2019-12-10 11:00:00 7.8 6 Norte 18 Norte 0 -- -- 53
2019-12-10 10:00:00 4.6 5 Norte 10 Norte 0 -- -- 68
2019-12-10 09:00:00 0.2 0 Calma 8 Noroeste 0 -- -- 88
2019-12-10 08:00:00 -0.2 3 Noroeste 9 Noroeste 0 -- -- 93
2019-12-10 07:00:00 -1.6 0 Calma 5 Sudeste 0 -- -- 93
2019-12-10 06:00:00 -1.6 2 Sur 7 Norte 0 -- -- 91
2019-12-10 05:00:00 0.5 2 Noroeste 7 Noroeste 0 -- -- 90
2019-12-10 04:00:00 1.1 3 Noroeste 8 Nordeste 0 -- -- 88
2019-12-10 03:00:00 2.6 4 Nordeste 19 Noroeste 0 -- -- 82
2019-12-10 02:00:00 3.2 8 Norte 18 Nordeste 0 -- -- 81
2019-12-10 01:00:00 3.4 3 Norte 36 Norte 0 -- -- 80
2019-12-10 00:00:00 3.1 7 Norte 21 Norte 0 -- -- 84
2019-12-09 23:00:00 3 6 Norte 16 Noroeste 0 -- -- 85
2019-12-09 22:00:00 3.4 7 Noroeste 14 Noroeste 0 -- -- 86
2019-12-09 21:00:00 2.7 2 Noroeste 12 Oeste 0 -- -- 90
2019-12-09 20:00:00 3.4 5 Noroeste 11 Noroeste 0 -- -- 90
2019-12-09 19:00:00 3 2 Norte 10 Noroeste 0 -- -- 88
2019-12-09 18:00:00 4.5 0 Calma 17 Norte 0 -- -- 82
2019-12-09 17:00:00 6.2 8 Norte 17 Noroeste 0 -- -- 80
2019-12-09 16:00:00 7.9 9 Noroeste 24 Noroeste 0 -- -- 78
2019-12-09 15:00:00 9.5 13 Noroeste 22 Noroeste 0 -- -- 66
2019-12-09 14:00:00 9.7 12 Noroeste 19 Noroeste 0 -- -- 70
2019-12-09 13:00:00 9.9 8 Noroeste 18 Oeste 0 -- -- 72
2019-12-09 12:00:00 9 6 Oeste 13 Oeste 0 -- -- 74
2019-12-09 11:00:00 5.3 3 Noroeste 8 Noroeste 0 -- -- 100
2019-12-09 10:00:00 3.3 3 Noroeste 10 Noroeste 0 -- -- 100
2019-12-09 09:00:00 3.3 4 Noroeste 11 Noroeste 0 -- -- 100
2019-12-09 08:00:00 3.6 4 Norte 9 Nordeste 0 -- -- 100
2019-12-09 07:00:00 4 0 Calma 11 Noroeste 0 -- -- 100
2019-12-09 06:00:00 4.1 0 Calma 5 Noroeste 0 -- -- 100
2019-12-09 05:00:00 4 0 Calma 6 Oeste 0 -- -- 100
2019-12-09 04:00:00 4.2 4 Oeste 9 Noroeste 0 -- -- 100
2019-12-09 03:00:00 4.1 0 Calma 3 Norte 0 -- -- 100
2019-12-09 02:00:00 4.5 0 Calma 5 Norte 0 -- -- 100
2019-12-09 01:00:00 4.9 3 Norte 7 Noroeste 0 -- -- 100
2019-12-09 00:00:00 5.6 2 Noroeste 9 Norte 0 -- -- 99
2019-12-08 23:00:00 5.9 4 Norte 13 Norte 0 -- -- 99
2019-12-08 22:00:00 6.1 4 Noroeste 8 Noroeste 0 -- -- 98
2019-12-08 21:00:00 6.2 3 Oeste 11 Noroeste 0 -- -- 98
2019-12-08 20:00:00 6.2 5 Noroeste 10 Noroeste 0.2 -- -- 98
2019-12-08 19:00:00 6.3 6 Noroeste 15 Noroeste 0 -- -- 96
2019-12-08 18:00:00 6.6 7 Noroeste 16 Noroeste 0 -- -- 93
2019-12-08 17:00:00 7 9 Noroeste 15 Noroeste 0 -- -- 86
2019-12-08 16:00:00 7.4 8 Noroeste 17 Oeste 0 -- -- 85
2019-12-08 15:00:00 8.5 9 Oeste 17 Oeste 0 -- -- 82
2019-12-08 14:00:00 10.6 8 Oeste 16 Noroeste 0 -- -- 71
2019-12-08 13:00:00 11.6 6 Oeste 13 Oeste 0 -- -- 71
2019-12-08 12:00:00 10.2 6 Oeste 12 Oeste 0 -- -- 77
2019-12-08 11:00:00 8 0 Calma 2 Noroeste 0 -- -- 94
2019-12-08 10:00:00 4.7 0 Calma 4 Noroeste 0.2 -- -- 100
2019-12-08 09:00:00 -0.3 0 Calma 2 Noroeste 0 -- -- 100
2019-12-08 08:00:00 -0.9 0 Calma 0 Calma 0 -- -- 100
2019-12-08 07:00:00 -0.4 0 Calma 2 Noroeste 0 -- -- 100
2019-12-08 06:00:00 0.3 0 Calma 2 Sur 0 -- -- 100
2019-12-08 05:00:00 -0.2 0 Calma 2 Noroeste 0 -- -- 100
2019-12-08 04:00:00 0.2 0 Calma 2 Oeste 0 -- -- 100
2019-12-08 03:00:00 0.3 0 Calma 4 Sur 0 -- -- 100
2019-12-08 02:00:00 0.6 0 Calma 2 Sur 0 -- -- 100
2019-12-08 01:00:00 0.8 0 Calma 3 Nordeste 0 -- -- 99
2019-12-08 00:00:00 0.3 0 Calma 2 Sudoeste 0 -- -- 98
2019-12-07 23:00:00 0.9 0 Calma 3 Sudeste 0 -- -- 98
2019-12-07 22:00:00 1.3 0 Calma 4 Sur 0 -- -- 98
2019-12-07 21:00:00 1.3 0 Calma 3 Sur 0 -- -- 97
2019-12-07 20:00:00 1.7 0 Calma 2 Sudoeste 0 -- -- 95
2019-12-07 19:00:00 2.9 0 Calma 2 Noroeste 0 -- -- 88
2019-12-07 18:00:00 6.4 0 Calma 5 Noroeste 0 -- -- 77
2019-12-07 17:00:00 11 4 Noroeste 11 Norte 0 -- -- 65
2019-12-07 16:00:00 13.3 3 Noroeste 9 Sudoeste 0 -- -- 56
2019-12-07 15:00:00 13.6 3 Oeste 6 Noroeste 0 -- -- 51
2019-12-07 14:00:00 13.9 2 Noroeste 9 Noroeste 0 -- -- 52
2019-12-07 13:00:00 13.2 4 Norte 10 Noroeste 0 -- -- 60
2019-12-07 12:00:00 11.7 3 Noroeste 5 Noroeste 0 -- -- 64
2019-12-07 11:00:00 8.8 0 Calma 4 Noroeste 0 -- -- 85
2019-12-07 10:00:00 5.6 0 Calma 3 Sudeste 0 -- -- 100
2019-12-07 09:00:00 0.3 0 Calma 4 Sur 0 -- -- 100
2019-12-07 08:00:00 0.5 3 Sudeste 5 Sudeste 0 -- -- 100
2019-12-07 07:00:00 -0.8 0 Calma 4 Sur 0 -- -- 100
2019-12-07 06:00:00 0.2 3 Sur 5 Sur 0 -- -- 100
2019-12-07 05:00:00 -0.4 0 Calma 3 Sudeste 0 -- -- 100
2019-12-07 04:00:00 -0.5 0 Calma 5 Noroeste 0 -- -- 99
2019-12-07 03:00:00 -0.3 -- -- -- -- 0 -- -- 100
2019-12-07 02:00:00 0.5 0 Calma 4 Noroeste 0 -- -- 100
2019-12-07 01:00:00 0.6 0 Calma 4 Noroeste 0 -- -- 100
2019-12-07 00:00:00 1.1 0 Calma 4 Sur 0 -- -- 99
2019-12-06 23:00:00 1.3 2 Sudeste 5 Sudeste 0 -- -- 98
2019-12-06 22:00:00 1.6 0 Calma 4 Sur 0 -- -- 97
2019-12-06 21:00:00 3 3 Sudeste 8 Sur 0 -- -- 96
2019-12-06 20:00:00 3.8 5 Sudeste 10 Sudeste 0 -- -- 94
2019-12-06 19:00:00 5.1 6 Sudeste 10 Sudeste 0 -- -- 89
2019-12-06 18:00:00 8.2 4 Sudeste 8 Este 0 -- -- 79
2019-12-06 17:00:00 9.2 3 Sudeste 17 Sudeste 0 -- -- 77
2019-12-06 16:00:00 10.7 10 Sur 15 Sudeste 0 -- -- 72
2019-12-06 15:00:00 9.5 8 Sudeste 16 Sudeste 0 -- -- 75
2019-12-06 14:00:00 9.7 8 Sur 18 Sur 0 -- -- 74
2019-12-06 13:00:00 10.6 9 Sudeste 22 Sudeste 0 -- -- 71
2019-12-06 12:00:00 10.1 12 Sudeste 24 Sudeste 0 -- -- 74
2019-12-06 11:00:00 8.9 8 Sudeste 16 Sudeste 0 -- -- 78
2019-12-06 10:00:00 7.8 3 Sudeste 7 Este 0 -- -- 83
2019-12-06 09:00:00 3.5 0 Calma 11 Sudeste 0 -- -- 93
2019-12-06 08:00:00 5.1 5 Sudeste 13 Este 0 -- -- 90
2019-12-06 07:00:00 5.1 4 Sudeste 9 Este 0 -- -- 92
2019-12-06 06:00:00 5.3 5 Este 9 Sudeste 0 -- -- 89
2019-12-06 05:00:00 5.1 0 Calma 3 Sudeste 0 -- -- 92
2019-12-06 04:00:00 5.2 2 Sur 10 Sudeste 0 -- -- 87
2019-12-06 03:00:00 5.5 0 Calma 4 Sudeste 0 -- -- 88
2019-12-06 02:00:00 6.1 2 Este 9 Este 0 -- -- 86
2019-12-06 01:00:00 5.8 4 Sudeste 13 Este 0 -- -- 87
2019-12-06 00:00:00 5.3 7 Este 15 Sudeste 0 -- -- 90
2019-12-05 23:00:00 4.6 2 Nordeste 11 Este 0 -- -- 91
2019-12-05 22:00:00 4.5 2 Nordeste 10 Sudeste 0 -- -- 90
2019-12-05 21:00:00 5.1 3 Sudeste 9 Sudeste 0 -- -- 83
2019-12-05 20:00:00 5.9 5 Este 11 Sudeste 0 -- -- 83
2019-12-05 19:00:00 6.4 6 Sudeste 10 Este 0 -- -- 84
2019-12-05 18:00:00 7.6 2 Este 9 Sudeste 0 -- -- 80
2019-12-05 17:00:00 8.5 7 Sudeste 22 Este 0 -- -- 75
2019-12-05 16:00:00 10.6 12 Sudeste 22 Sudeste 0 -- -- 67
2019-12-05 15:00:00 10.2 14 Sudeste 26 Sudeste 0 -- -- 69
2019-12-05 14:00:00 10.8 13 Sudeste 34 Este 0 -- -- 67
2019-12-05 13:00:00 13.3 17 Este 36 Este 0 -- -- 58
2019-12-05 12:00:00 12.1 12 Sudeste 24 Este 0 -- -- 62
2019-12-05 11:00:00 8.4 4 Este 19 Nordeste 0 -- -- 72
2019-12-05 10:00:00 5.3 2 Este 6 Nordeste 0 -- -- 85
2019-12-05 09:00:00 4.1 3 Norte 13 Nordeste 0 -- -- 90
2019-12-05 08:00:00 3.7 3 Norte 9 Nordeste 0 -- -- 91
2019-12-05 07:00:00 2.9 3 Noroeste 13 Noroeste 0 -- -- 92
2019-12-05 06:00:00 4.2 3 Nordeste 14 Este 0 -- -- 86
2019-12-05 05:00:00 3.9 3 Norte 10 Nordeste 0 -- -- 90
2019-12-05 04:00:00 4.7 3 Norte 18 Nordeste 0 -- -- 87
2019-12-05 03:00:00 4.8 6 Nordeste 20 Norte 0 -- -- 86
2019-12-05 02:00:00 4.9 5 Norte 17 Nordeste 0 -- -- 85
2019-12-05 01:00:00 5.6 5 Nordeste 27 Nordeste 0 -- -- 81
2019-12-05 00:00:00 6.2 8 Este 27 Nordeste 0 -- -- 78
2019-12-04 23:00:00 6.1 8 Nordeste 19 Nordeste 0.2 -- -- 79
2019-12-04 22:00:00 5.2 5 Nordeste 12 Nordeste 0 -- -- 90
2019-12-04 21:00:00 5.1 4 Norte 10 Norte 0 -- -- 90
2019-12-04 20:00:00 5.3 5 Norte 9 Norte 0 -- -- 89
2019-12-04 19:00:00 5.9 6 Norte 19 Norte 0 -- -- 87
2019-12-04 18:00:00 6.6 5 Noroeste 11 Norte 0 -- -- 86
2019-12-04 17:00:00 7 8 Norte 16 Norte 0 -- -- 84
2019-12-04 16:00:00 7.4 8 Norte 22 Norte 0 -- -- 83
2019-12-04 15:00:00 8.7 12 Norte 20 Norte 0 -- -- 78
2019-12-04 14:00:00 8.6 5 Nordeste 19 Nordeste 0 -- -- 81
2019-12-04 13:00:00 7.6 8 Norte 21 Nordeste 0 -- -- 88
2019-12-04 12:00:00 7.7 9 Norte 22 Norte 0 -- -- 89
2019-12-04 11:00:00 4.4 10 Norte 17 Norte 0 -- -- 99
2019-12-04 10:00:00 3.8 5 Norte 9 Norte 0 -- -- 99
2019-12-04 09:00:00 3.6 5 Norte 9 Noroeste 0 -- -- 99
2019-12-04 08:00:00 3.6 5 Norte 9 Norte 0.4 -- -- 99
2019-12-04 07:00:00 3.6 4 Norte 10 Norte 1 -- -- 99
2019-12-04 06:00:00 3.4 5 Norte 14 Nordeste 0.2 -- -- 98
2019-12-04 05:00:00 3.3 4 Norte 12 Norte 0 -- -- 98
2019-12-04 04:00:00 3.4 5 Norte 12 Norte 0 -- -- 96
2019-12-04 03:00:00 3.7 5 Norte 16 Norte 0.2 -- -- 96
2019-12-04 02:00:00 4.1 5 Norte 15 Norte 0.2 -- -- 97
2019-12-04 01:00:00 4.3 2 Este 6 Nordeste 0 -- -- 98
2019-12-04 00:00:00 4.5 0 Calma 2 Noroeste 0.2 -- -- 98
2019-12-03 23:00:00 4.5 0 Calma 4 Este 0 -- -- 97
2019-12-03 22:00:00 4.8 3 Sudeste 10 Sudeste 1 -- -- 96
2019-12-03 21:00:00 5.2 2 Sudeste 5 Sudeste 0.2 -- -- 96
2019-12-03 20:00:00 5.5 0 Calma 4 Noroeste 0 -- -- 94
2019-12-03 19:00:00 5.7 2 Sudoeste 4 Sudoeste 0 -- -- 92
2019-12-03 18:00:00 6.2 0 Calma 3 Noroeste 0 -- -- 89
2019-12-03 17:00:00 6.6 0 Calma 6 Sudeste 0 -- -- 85
2019-12-03 16:00:00 7 3 Sudeste 15 Este 0 -- -- 80
2019-12-03 15:00:00 7.4 8 Este 26 Sudeste 0 -- -- 76
2019-12-03 14:00:00 8.5 12 Este 29 Este 0 -- -- 74
2019-12-03 13:00:00 8.4 12 Este 24 Sudeste 0 -- -- 73
2019-12-03 12:00:00 7.5 12 Sudeste 25 Sudeste 0 -- -- 78
2019-12-03 11:00:00 7.8 14 Sudeste 26 Sudeste 0 -- -- 74
2019-12-03 10:00:00 5.8 16 Este 24 Este 0 -- -- 80
2019-12-03 09:00:00 5.1 10 Este 21 Este 0 -- -- 81
2019-12-03 08:00:00 4.8 12 Sudeste 23 Este 0 -- -- 80
2019-12-03 07:00:00 3.6 2 Nordeste 12 Este 0 -- -- 84
2019-12-03 06:00:00 2.6 0 Calma 8 Noroeste 0 -- -- 89
2019-12-03 05:00:00 0.9 0 Calma 5 Noroeste 0 -- -- 99
2019-12-03 04:00:00 -0.4 0 Calma 3 Nordeste 0 -- -- 97
2019-12-03 03:00:00 0.1 0 Calma 2 Oeste 0 -- -- 96
2019-12-03 02:00:00 0.2 0 Calma 6 Este 0 -- -- 92
2019-12-03 01:00:00 1.9 2 Nordeste 7 Sudeste 0 -- -- 91
2019-12-03 00:00:00 3.1 0 Calma 9 Sudeste 0 -- -- 88
2019-12-02 23:00:00 3.4 0 Calma 12 Este 0 -- -- 83
2019-12-02 22:00:00 3.4 2 Nordeste 11 Nordeste 0 -- -- 88
2019-12-02 21:00:00 4 4 Nordeste 12 Norte 0 -- -- 87
2019-12-02 20:00:00 5.2 3 Nordeste 11 Nordeste 0 -- -- 82
2019-12-02 19:00:00 5.6 2 Nordeste 8 Nordeste 0 -- -- 81
2019-12-02 18:00:00 6.5 3 Nordeste 21 Nordeste 0 -- -- 77
2019-12-02 17:00:00 8.3 4 Nordeste 21 Sudeste 0 -- -- 71
2019-12-02 16:00:00 8.8 15 Sudeste 28 Este 0 -- -- 69
2019-12-02 15:00:00 9.2 16 Sudeste 27 Sudeste 0 -- -- 68
2019-12-02 14:00:00 10.7 8 Este 25 Este 0 -- -- 63
2019-12-02 13:00:00 10 9 Este 20 Este 0 -- -- 64
2019-12-02 12:00:00 8.5 8 Nordeste 25 Nordeste 0 -- -- 69
2019-12-02 11:00:00 7.1 9 Nordeste 22 Nordeste 0 -- -- 73
2019-12-02 10:00:00 5.5 5 Este 20 Este 0 -- -- 80
2019-12-02 09:00:00 3.9 3 Nordeste 9 Este 0 -- -- 88
2019-12-02 08:00:00 3.3 2 Norte 7 Norte 0 -- -- 89
2019-12-02 07:00:00 3.3 4 Noroeste 8 Noroeste 0 -- -- 90
2019-12-02 06:00:00 4.3 2 Este 14 Este 0 -- -- 83
2019-12-02 05:00:00 4.8 6 Este 17 Este 0 -- -- 84
2019-12-02 04:00:00 5 11 Este 19 Sudeste 0 -- -- 87
2019-12-02 03:00:00 5.1 8 Este 28 Sudeste 0 -- -- 88
2019-12-02 02:00:00 5.1 4 Este 18 Este 0 -- -- 93
2019-12-02 01:00:00 5 4 Este 16 Este 0 -- -- 96
2019-12-02 00:00:00 5.1 8 Sudeste 17 Sudeste 0.2 -- -- 95
2019-12-01 23:00:00 5.5 5 Este 12 Este 0.8 -- -- 96
2019-12-01 22:00:00 5.6 6 Este 12 Este 0 -- -- 95
2019-12-01 21:00:00 5.4 0 Calma 8 Sur 0 -- -- 94
2019-12-01 20:00:00 5.5 7 Sur 13 Sudeste 0 -- -- 94
2019-12-01 19:00:00 5.4 3 Este 8 Sudeste 0 -- -- 97
2019-12-01 18:00:00 5.8 6 Sur 15 Sudoeste 0 -- -- 96
2019-12-01 17:00:00 6.8 6 Sudeste 10 Sur 0 -- -- 92
2019-12-01 16:00:00 7.1 4 Sudeste 7 Sudeste 0 -- -- 92
2019-12-01 15:00:00 6.6 4 Sudoeste 10 Sur 0 -- -- 91
2019-12-01 14:00:00 7.1 5 Sur 14 Sur 0 -- -- 85
2019-12-01 13:00:00 7 8 Sudoeste 13 Sudoeste 0 -- -- 86
2019-12-01 12:00:00 6 5 Sudoeste 14 Sudoeste 0 -- -- 95
2019-12-01 11:00:00 5.6 5 Sur 13 Sur 0 -- -- 97
2019-12-01 10:00:00 5 5 Sur 12 Sur 0 -- -- 100
2019-12-01 09:00:00 4.3 0 Calma 7 Noroeste 0 -- -- 100
2019-12-01 08:00:00 3.9 3 Noroeste 12 Noroeste 0.2 -- -- 100
2019-12-01 07:00:00 2.9 3 Noroeste 9 Oeste 0 -- -- 99
2019-12-01 06:00:00 4 3 Noroeste 9 Oeste 0 -- -- 100
2019-12-01 05:00:00 5.2 6 Oeste 12 Noroeste 0 -- -- 99
2019-12-01 04:00:00 5.7 3 Noroeste 9 Oeste 0 -- -- 99
2019-12-01 03:00:00 6.1 0 Calma 5 Sur 0.4 -- -- 99
2019-12-01 02:00:00 5.7 0 Calma 8 Norte 1 -- -- 98
2019-12-01 01:00:00 6.1 5 Norte 30 Noroeste 1.2 -- -- 97
2019-12-01 00:00:00 8.5 8 Oeste 33 Sudoeste 0.8 -- -- 99
2019-11-30 23:00:00 8.7 13 Sudoeste 27 Sudoeste 0.2 -- -- 96
2019-11-30 22:00:00 9 12 Sudoeste 25 Sur 0 -- -- 93
2019-11-30 21:00:00 9 10 Sudoeste 23 Sudoeste 0 -- -- 90
2019-11-30 20:00:00 9.4 8 Sudoeste 24 Sudoeste 0 -- -- 90
2019-11-30 19:00:00 9.8 10 Sudoeste 22 Sudoeste 0 -- -- 90
2019-11-30 18:00:00 10.1 10 Sudoeste 18 Sudoeste 0 -- -- 93
2019-11-30 17:00:00 10.8 8 Sudoeste 23 Sudoeste 0 -- -- 88
2019-11-30 16:00:00 11.6 11 Sudoeste 26 Sudoeste 0 -- -- 85
2019-11-30 15:00:00 11.6 5 Sudoeste 17 Oeste 0 -- -- 88
2019-11-30 14:00:00 11.5 6 Oeste 15 Oeste 0 -- -- 86
2019-11-30 13:00:00 11.8 5 Oeste 15 Sudoeste 0 -- -- 90
2019-11-30 12:00:00 10.4 7 Sudoeste 13 Sudoeste 0 -- -- 96
2019-11-30 11:00:00 9.8 6 Sudoeste 15 Sur 0 -- -- 100
2019-11-30 10:00:00 9.1 0 Calma 9 Sur 0 -- -- 100
2019-11-30 09:00:00 8.9 5 Sur 12 Sur 0 -- -- 100
2019-11-30 08:00:00 9 5 Sur 11 Sur 0 -- -- 100
2019-11-30 07:00:00 9 0 Calma 8 Oeste 0 -- -- 100
2019-11-30 06:00:00 9.1 5 Oeste 12 Oeste 0.4 -- -- 100
2019-11-30 05:00:00 9.1 2 Oeste 8 Sudoeste 0.2 -- -- 100
2019-11-30 04:00:00 9.2 5 Sur 11 Sudoeste 0 -- -- 100
2019-11-30 03:00:00 9.3 0 Calma 6 Oeste 0 -- -- 100
2019-11-30 02:00:00 9.3 3 Oeste 10 Oeste 0 -- -- 100
2019-11-30 01:00:00 9.4 4 Noroeste 12 Oeste 0 -- -- 100
2019-11-30 00:00:00 9.5 3 Noroeste 10 Oeste 0 -- -- 100
2019-11-29 23:00:00 9.6 6 Oeste 13 Sudoeste 0 -- -- 100
2019-11-29 22:00:00 9.7 6 Oeste 15 Oeste 0.4 -- -- 100
2019-11-29 21:00:00 9.9 6 Oeste 14 Oeste 0.4 -- -- 100
2019-11-29 20:00:00 10 3 Sudoeste 11 Noroeste 0.2 -- -- 100
2019-11-29 19:00:00 10.1 8 Oeste 14 Noroeste 0 -- -- 100
2019-11-29 18:00:00 10.2 4 Sudoeste 13 Oeste 0 -- -- 100
2019-11-29 17:00:00 10.3 6 Oeste 18 Oeste 0 -- -- 100
2019-11-29 16:00:00 10.5 10 Oeste 24 Oeste 0 -- -- 99
2019-11-29 15:00:00 10.3 9 Oeste 16 Oeste 0 -- -- 100
2019-11-29 14:00:00 10.2 3 Sudoeste 18 Oeste 0 -- -- 100
2019-11-29 13:00:00 10 6 Oeste 14 Oeste 0 -- -- 100
2019-11-29 12:00:00 9.6 6 Oeste 19 Oeste 0 -- -- 100
2019-11-29 11:00:00 9.1 7 Noroeste 15 Oeste 0 -- -- 100
2019-11-29 10:00:00 8.5 10 Oeste 17 Oeste 0.2 -- -- 100
2019-11-29 09:00:00 8.3 8 Oeste 21 Oeste 0 -- -- 100
2019-11-29 08:00:00 8.1 5 Oeste 15 Noroeste 0 -- -- 100
2019-11-29 07:00:00 8 7 Oeste 17 Oeste 0.2 -- -- 100
2019-11-29 06:00:00 8 8 Oeste 20 Oeste 0 -- -- 100
2019-11-29 05:00:00 7.8 9 Oeste 19 Oeste 0 -- -- 100
2019-11-29 04:00:00 7.7 9 Oeste 19 Oeste 0 -- -- 100
2019-11-29 03:00:00 7.6 4 Oeste 19 Oeste 0 -- -- 100
2019-11-29 02:00:00 7.6 10 Oeste 21 Oeste 0 -- -- 99
2019-11-29 01:00:00 7.6 9 Oeste 26 Noroeste 0 -- -- 99
2019-11-29 00:00:00 7.8 14 Oeste 25 Noroeste 0 -- -- 99
2019-11-28 23:00:00 7.8 7 Oeste 22 Oeste 0 -- -- 100
2019-11-28 22:00:00 7.7 13 Oeste 26 Oeste 0 -- -- 100
2019-11-28 21:00:00 7.6 10 Oeste 26 Noroeste 0 -- -- 100
2019-11-28 20:00:00 7.5 6 Oeste 23 Oeste 0 -- -- 99
2019-11-28 19:00:00 7.6 9 Oeste 20 Oeste 0 -- -- 97
2019-11-28 18:00:00 7.6 4 Sudoeste 16 Sudoeste 0 -- -- 98
2019-11-28 17:00:00 7.6 6 Oeste 23 Sudoeste 0 -- -- 98
2019-11-28 16:00:00 7.5 6 Oeste 19 Sudoeste 0 -- -- 98
2019-11-28 15:00:00 7.4 9 Sudoeste 21 Sudoeste 0 -- -- 98
2019-11-28 14:00:00 7.1 7 Sudoeste 18 Sudoeste 0.2 -- -- 98
2019-11-28 13:00:00 7 10 Oeste 20 Oeste 0 -- -- 99
2019-11-28 12:00:00 6.8 9 Oeste 27 Oeste 0.2 -- -- 99
2019-11-28 11:00:00 6.9 8 Noroeste 24 Oeste 0 -- -- 100
2019-11-28 10:00:00 6.4 11 Noroeste 23 Noroeste 0.2 -- -- 100
2019-11-28 09:00:00 6.1 11 Noroeste 26 Noroeste 0 -- -- 100
2019-11-28 08:00:00 6 15 Noroeste 26 Oeste 0 -- -- 99
2019-11-28 07:00:00 6.4 13 Noroeste 28 Noroeste 0 -- -- 97
2019-11-28 06:00:00 6.4 11 Noroeste 32 Oeste 0 -- -- 96
2019-11-28 05:00:00 6.4 14 Oeste 30 Oeste 0 -- -- 95
2019-11-28 04:00:00 6.7 12 Oeste 25 Noroeste 0 -- -- 94
2019-11-28 03:00:00 6.6 12 Noroeste 27 Oeste 0 -- -- 95
2019-11-28 02:00:00 6.7 9 Oeste 19 Oeste 0 -- -- 94
2019-11-28 01:00:00 6.7 7 Oeste 25 Oeste 0 -- -- 94
2019-11-28 00:00:00 6.9 8 Oeste 18 Oeste 0 -- -- 94
2019-11-27 23:00:00 7.1 9 Oeste 23 Oeste 0 -- -- 95
2019-11-27 22:00:00 7.4 9 Noroeste 23 Oeste 0 -- -- 92
2019-11-27 21:00:00 7.5 11 Noroeste 21 Noroeste 0 -- -- 91
2019-11-27 20:00:00 7.2 7 Noroeste 19 Oeste 0 -- -- 90
2019-11-27 19:00:00 7.3 9 Oeste 24 Oeste 0 -- -- 87
2019-11-27 18:00:00 8.1 14 Oeste 31 Noroeste 0 -- -- 81
2019-11-27 17:00:00 8.4 9 Oeste 30 Oeste 0 -- -- 86
2019-11-27 16:00:00 8.7 15 Oeste 31 Noroeste 0 -- -- 81
2019-11-27 15:00:00 8.6 14 Oeste 31 Oeste 0 -- -- 82
2019-11-27 14:00:00 8.2 12 Oeste 28 Oeste 0 -- -- 86
2019-11-27 06:00:00 -- -- -- -- -- -- -- -- --
2019-11-27 05:00:00 -- -- -- -- -- -- -- -- --
2019-11-27 04:00:00 -- -- -- -- -- -- -- -- --
2019-11-27 03:00:00 9.5 19 Oeste 36 Oeste 0 -- -- 95
2019-11-27 02:00:00 9.9 22 Oeste 39 Oeste 0 -- -- 98
2019-11-27 01:00:00 10 17 Oeste 33 Oeste 1.2 -- -- 100
2019-11-27 00:00:00 10 12 Oeste 30 Oeste 0.4 -- -- 99
2019-11-26 23:00:00 10.1 5 Sudoeste 30 Sudoeste 0 -- -- 98
2019-11-26 22:00:00 10.2 5 Sudoeste 37 Sudoeste 0 -- -- 97
2019-11-26 21:00:00 10.4 10 Sudoeste 35 Sudoeste 0.4 -- -- 98
2019-11-26 20:00:00 10.5 12 Sudoeste 30 Oeste 0 -- -- 98
2019-11-26 19:00:00 10.7 11 Sudoeste 24 Sudoeste 0.2 -- -- 97
2019-11-26 18:00:00 10.8 6 Sudoeste 26 Sudoeste 0 -- -- 95
2019-11-26 17:00:00 11.1 7 Sudoeste 18 Sudoeste 0 -- -- 94
2019-11-26 16:00:00 11.5 4 Sudoeste 18 Sudoeste 0.2 -- -- 96
2019-11-26 15:00:00 10.4 2 Oeste 18 Sudoeste 0 -- -- 99
2019-11-26 14:00:00 10.1 4 Sudoeste 14 Sudoeste 0 -- -- 98
2019-11-26 13:00:00 9.6 4 Sudoeste 15 Sur 0 -- -- 97
2019-11-26 12:00:00 9.5 6 Sudoeste 14 Sur 0 -- -- 94
2019-11-26 11:00:00 9.4 5 Sudoeste 13 Oeste 0 -- -- 90
2019-11-26 10:00:00 8.8 3 Noroeste 11 Oeste 0 -- -- 91
2019-11-26 09:00:00 8.4 7 Oeste 17 Sudoeste 0 -- -- 93
2019-11-26 08:00:00 8.4 6 Oeste 24 Noroeste 0 -- -- 95
2019-11-26 07:00:00 8.3 5 Noroeste 12 Noroeste 0 -- -- 97
2019-11-26 06:00:00 8.5 7 Oeste 19 Noroeste 0 -- -- 97
2019-11-26 05:00:00 8.6 8 Oeste 18 Oeste 0 -- -- 98
2019-11-26 04:00:00 8.7 8 Noroeste 17 Oeste 0 -- -- 98
2019-11-26 03:00:00 8.9 8 Oeste 16 Oeste 0 -- -- 99
2019-11-26 02:00:00 9.1 8 Noroeste 17 Oeste 0 -- -- 98
2019-11-26 01:00:00 9.1 10 Oeste 18 Oeste 0 -- -- 97
2019-11-26 00:00:00 9.1 8 Oeste 21 Oeste 0 -- -- 97
2019-11-25 23:00:00 9.2 10 Noroeste 22 Noroeste 0 -- -- 97
2019-11-25 22:00:00 9.4 7 Oeste 23 Noroeste 0 -- -- 96
2019-11-25 21:00:00 9.3 8 Noroeste 20 Oeste 0 -- -- 96
2019-11-25 20:00:00 9.3 9 Noroeste 18 Noroeste 0 -- -- 97
2019-11-25 19:00:00 9.2 6 Oeste 17 Oeste 0 -- -- 95
2019-11-25 18:00:00 9.6 8 Noroeste 21 Noroeste 0 -- -- 91
2019-11-25 17:00:00 10.8 9 Noroeste 22 Noroeste 0 -- -- 88
2019-11-25 16:00:00 11.1 10 Oeste 23 Noroeste 0 -- -- 89
2019-11-25 15:00:00 11.2 10 Noroeste 19 Noroeste 0 -- -- 88
2019-11-25 14:00:00 11.6 8 Oeste 23 Oeste 0 -- -- 85
2019-11-25 13:00:00 10.6 12 Noroeste 25 Oeste 0 -- -- 94
2019-11-25 12:00:00 8.9 13 Noroeste 25 Noroeste 0 -- -- 100
2019-11-25 11:00:00 8 8 Oeste 22 Oeste 0 -- -- 100
2019-11-25 10:00:00 7.2 8 Oeste 17 Oeste 0 -- -- 100
2019-11-25 09:00:00 6.6 12 Oeste 21 Oeste 0.2 -- -- 100
2019-11-25 08:00:00 6.5 12 Oeste 24 Oeste 0 -- -- 100
2019-11-25 07:00:00 6.5 12 Oeste 31 Oeste 0 -- -- 100
2019-11-25 06:00:00 6.5 14 Oeste 31 Oeste 0 -- -- 100
2019-11-25 05:00:00 6.1 13 Oeste 27 Oeste 0 -- -- 100
2019-11-25 04:00:00 5.9 11 Oeste 23 Oeste 0.2 -- -- 100
2019-11-25 03:00:00 5.4 5 Sudoeste 19 Oeste 0.2 -- -- 98
2019-11-25 02:00:00 5.5 7 Oeste 22 Oeste 0 -- -- 96
2019-11-25 01:00:00 5.3 7 Oeste 23 Oeste 0 -- -- 93
2019-11-25 00:00:00 5.3 10 Noroeste 18 Noroeste 0 -- -- 95
2019-11-24 23:00:00 5.3 10 Noroeste 27 Oeste 0 -- -- 93
2019-11-24 22:00:00 4.8 4 Noroeste 26 Oeste 0 -- -- 91
2019-11-24 21:00:00 4.1 6 Noroeste 15 Noroeste 0 -- -- 89
2019-11-24 20:00:00 4.4 6 Oeste 15 Oeste 0 -- -- 84
2019-11-24 19:00:00 4.6 6 Oeste 15 Oeste 0 -- -- 84
2019-11-24 18:00:00 5.5 6 Oeste 24 Noroeste 0 -- -- 77
2019-11-24 17:00:00 7 9 Noroeste 28 Oeste 0 -- -- 70
2019-11-24 16:00:00 8.5 11 Noroeste 22 Oeste 0 -- -- 63
2019-11-24 15:00:00 7.8 11 Noroeste 24 Noroeste 0 -- -- 65
2019-11-24 14:00:00 8.4 11 Noroeste 25 Noroeste 0 -- -- 64
2019-11-24 13:00:00 7.2 10 Noroeste 24 Noroeste 0 -- -- 70
2019-11-24 12:00:00 7.2 8 Norte 17 Norte 0 -- -- 70
2019-11-24 11:00:00 5.2 4 Noroeste 16 Noroeste 0 -- -- 83
2019-11-24 10:00:00 3.9 3 Noroeste 10 Noroeste 0 -- -- 88
2019-11-24 09:00:00 0.3 0 Calma 8 Noroeste 0 -- -- 99
2019-11-24 08:00:00 -0.8 4 Oeste 10 Oeste 0 -- -- 98
2019-11-24 07:00:00 0.8 0 Calma 14 Noroeste 0 -- -- 94
2019-11-24 06:00:00 1.4 6 Noroeste 22 Noroeste 0 -- -- 94
2019-11-24 05:00:00 1.5 4 Noroeste 20 Noroeste 0 -- -- 91
2019-11-24 04:00:00 2.5 12 Noroeste 23 Noroeste 0 -- -- 89
2019-11-24 03:00:00 2.7 12 Noroeste 23 Noroeste 0 -- -- 88
2019-11-24 02:00:00 3.2 16 Noroeste 31 Noroeste 0 -- -- 85
2019-11-24 01:00:00 3.6 15 Noroeste 38 Noroeste 0 -- -- 83
2019-11-24 00:00:00 4.2 20 Noroeste 37 Noroeste 0 -- -- 77
2019-11-23 23:00:00 3.9 16 Noroeste 30 Noroeste 0 -- -- 79
2019-11-23 22:00:00 3.7 12 Noroeste 25 Noroeste 0 -- -- 81
2019-11-23 21:00:00 4.5 13 Noroeste 23 Noroeste 0 -- -- 78
2019-11-23 20:00:00 4.9 11 Noroeste 22 Oeste 0 -- -- 74
2019-11-23 19:00:00 5.3 13 Noroeste 26 Noroeste 0 -- -- 73
2019-11-23 18:00:00 6.2 17 Noroeste 36 Noroeste 0 -- -- 68
2019-11-23 17:00:00 7.7 24 Noroeste 47 Noroeste 0 -- -- 62
2019-11-23 16:00:00 8.4 26 Noroeste 47 Noroeste 0 -- -- 62
2019-11-23 15:00:00 8.4 23 Noroeste 48 Noroeste 0 -- -- 62
2019-11-23 14:00:00 7.6 23 Noroeste 44 Noroeste 0 -- -- 65
2019-11-23 13:00:00 7.9 22 Noroeste 44 Noroeste 0 -- -- 62
2019-11-23 12:00:00 6.9 26 Noroeste 49 Noroeste 0 -- -- 74
2019-11-23 11:00:00 6 20 Noroeste 46 Noroeste 0 -- -- 79
2019-11-23 10:00:00 4.6 28 Noroeste 47 Noroeste 0 -- -- 85
2019-11-23 09:00:00 3.7 19 Noroeste 42 Noroeste 0 -- -- 92
2019-11-23 08:00:00 3.8 21 Noroeste 42 Oeste 0 -- -- 96
2019-11-23 07:00:00 3.7 20 Noroeste 45 Noroeste 1 -- -- 96
2019-11-23 06:00:00 4.3 17 Oeste 33 Noroeste 0.2 -- -- 97
2019-11-23 05:00:00 4.1 17 Oeste 40 Oeste 0.2 -- -- 94
2019-11-23 04:00:00 4.1 18 Oeste 45 Oeste 1.4 -- -- 92
2019-11-23 03:00:00 5.7 22 Oeste 43 Oeste 0.6 -- -- 95
2019-11-23 02:00:00 6.1 19 Oeste 37 Oeste 0.6 -- -- 96
2019-11-23 01:00:00 6.8 21 Oeste 43 Oeste 0 -- -- 89
2019-11-23 00:00:00 6.9 21 Oeste 49 Oeste 0 -- -- 93
2019-11-22 23:00:00 7.2 12 Oeste 32 Oeste 0 -- -- 92
2019-11-22 22:00:00 7.8 14 Oeste 29 Sur 0 -- -- 92
2019-11-22 21:00:00 8.9 12 Oeste 34 Noroeste 0 -- -- 96
2019-11-22 20:00:00 9.2 13 Sudoeste 32 Sudoeste 0 -- -- 96
2019-11-22 19:00:00 9.6 14 Sudoeste 38 Sudoeste 0 -- -- 97
2019-11-22 18:00:00 9.8 21 Sudoeste 45 Sudoeste 0.6 -- -- 99
2019-11-22 17:00:00 9.6 18 Sur 36 Sur 0.4 -- -- 99
2019-11-22 16:00:00 9.2 21 Sur 37 Sur 0.8 -- -- 99
2019-11-22 15:00:00 8.7 20 Sur 37 Sur 3.2 -- -- 99
2019-11-22 14:00:00 8.2 21 Sur 35 Sur 1.4 -- -- 99
2019-11-22 13:00:00 7.9 18 Sur 33 Sur 1 -- -- 99
2019-11-22 12:00:00 7.4 18 Sur 32 Sur 0.2 -- -- 100
2019-11-22 11:00:00 7.1 14 Sur 32 Sur 0.2 -- -- 100
2019-11-22 10:00:00 6.7 14 Sur 23 Sur 0.2 -- -- 100
2019-11-22 09:00:00 6.2 10 Sur 20 Sur 0.2 -- -- 100
2019-11-22 08:00:00 6 10 Sur 18 Sur 0.4 -- -- 100
2019-11-22 07:00:00 5.8 9 Sur 16 Sur 0.2 -- -- 100
2019-11-22 06:00:00 5.7 10 Sur 16 Sur 0 -- -- 100
2019-11-22 05:00:00 5.4 8 Sur 15 Sur 0 -- -- 100
2019-11-22 04:00:00 5.1 7 Sur 15 Sur 0 -- -- 100
2019-11-22 03:00:00 5 8 Sur 16 Sur 0 -- -- 100
2019-11-22 02:00:00 5.1 6 Sur 11 Sudeste 0 -- -- 99
2019-11-22 01:00:00 5.4 5 Sur 10 Sur 0 -- -- 99
2019-11-22 00:00:00 5.1 2 Sur 3 Sur 0 -- -- 99
2019-11-21 23:00:00 5.2 0 Calma 5 Sur 0 -- -- 98
2019-11-21 22:00:00 5.1 3 Sur 9 Sur 0 -- -- 98
2019-11-21 21:00:00 4.6 5 Sur 8 Sur 0 -- -- 97
2019-11-21 20:00:00 4.9 3 Sur 4 Sur 0 -- -- 98
2019-11-21 19:00:00 5.3 0 Calma 2 Sur 0 -- -- 98
2019-11-21 18:00:00 5.6 0 Calma 14 Noroeste 0.4 -- -- 96
2019-11-21 17:00:00 6.4 5 Sudoeste 14 Sudoeste 0.4 -- -- 96
2019-11-21 16:00:00 6.6 5 Sudoeste 15 Sur 0.8 -- -- 97
2019-11-21 15:00:00 6.6 5 Sudoeste 15 Sudoeste 1.2 -- -- 95
2019-11-21 14:00:00 7.2 5 Oeste 17 Sur 0 -- -- 88
2019-11-21 13:00:00 6.9 5 Sudoeste 19 Oeste 0 -- -- 91
2019-11-21 12:00:00 6.4 4 Sudoeste 20 Sur 0 -- -- 100
2019-11-21 11:00:00 5.2 8 Sudoeste 19 Sur 0 -- -- 100
2019-11-21 10:00:00 5 5 Sudoeste 15 Sur 0 -- -- 100
2019-11-21 09:00:00 4.4 0 Calma 11 Sudoeste 0 -- -- 100
2019-11-21 08:00:00 4.3 2 Oeste 11 Oeste 0.2 -- -- 100
2019-11-21 07:00:00 4.2 0 Calma 6 Oeste 0 -- -- 100
2019-11-21 06:00:00 4 3 Noroeste 13 Oeste 0 -- -- 100
2019-11-21 05:00:00 3.8 4 Oeste 13 Oeste 0 -- -- 100
2019-11-21 04:00:00 3.9 6 Oeste 19 Oeste 0 -- -- 100
2019-11-21 03:00:00 3.8 5 Oeste 11 Oeste 0 -- -- 100
2019-11-21 02:00:00 3.6 4 Sudoeste 10 Sudoeste 0 -- -- 100
2019-11-21 01:00:00 3.5 2 Sudoeste 14 Sur 0 -- -- 100
2019-11-21 00:00:00 3.4 5 Sudoeste 13 Sur 0.2 -- -- 100
2019-11-20 23:00:00 3.4 6 Sur 13 Sur 0 -- -- 100
2019-11-20 22:00:00 3.1 7 Sur 16 Sur 0 -- -- 99
2019-11-20 21:00:00 3.1 8 Sur 15 Sur 0 -- -- 97
2019-11-20 20:00:00 3.2 4 Sudoeste 15 Sudoeste 0.6 -- -- 96
2019-11-20 19:00:00 3.4 4 Sudoeste 12 Sudoeste 0 -- -- 95
2019-11-20 18:00:00 4.3 5 Sudoeste 20 Sudoeste 0 -- -- 87
2019-11-20 17:00:00 5.9 5 Sudoeste 22 Sur 0 -- -- 69
2019-11-20 16:00:00 6.3 9 Sudoeste 18 Sudoeste 0 -- -- 73
2019-11-20 15:00:00 6.6 8 Sudoeste 19 Sudoeste 0 -- -- 73
2019-11-20 14:00:00 8.3 10 Sudoeste 18 Sudoeste 0 -- -- 65
2019-11-20 13:00:00 6.7 4 Oeste 12 Sur 0 -- -- 76
2019-11-20 12:00:00 7.1 4 Sudoeste 13 Sur 0 -- -- 73
2019-11-20 11:00:00 6.2 6 Sudoeste 15 Sur 0 -- -- 80
2019-11-20 10:00:00 3 0 Calma 5 Sur 0 -- -- 100
2019-11-20 09:00:00 -1.6 0 Calma 2 Sudeste 0 -- -- 100
2019-11-20 08:00:00 -3 0 Calma 3 Sudoeste 0 -- -- 98
2019-11-20 07:00:00 -3 0 Calma 3 Sudeste 0 -- -- 97
2019-11-20 06:00:00 -2.1 0 Calma 2 Sur 0 -- -- 97
2019-11-20 05:00:00 -0.8 0 Calma 4 Noroeste 0 -- -- 99
2019-11-20 04:00:00 -1.3 0 Calma 4 Noroeste 0 -- -- 98
2019-11-20 03:00:00 -1.1 0 Calma 2 Noroeste 0 -- -- 98
2019-11-20 02:00:00 -1.3 0 Calma 2 Sudoeste 0 -- -- 97
2019-11-20 01:00:00 -1.2 0 Calma 2 Sur 0 -- -- 97
2019-11-20 00:00:00 -1 0 Calma 3 Sudeste 0 -- -- 97
2019-11-19 23:00:00 -1.3 0 Calma 2 Sur 0 -- -- 96
2019-11-19 22:00:00 -0.9 0 Calma 2 Sur 0 -- -- 95
2019-11-19 21:00:00 -0.9 0 Calma 3 Sur 0 -- -- 92
2019-11-19 20:00:00 0.1 0 Calma 3 Oeste 0 -- -- 87
2019-11-19 19:00:00 1.9 0 Calma 7 Oeste 0 -- -- 80
2019-11-19 18:00:00 4 3 Oeste 13 Noroeste 0 -- -- 72
2019-11-19 17:00:00 6.3 7 Noroeste 14 Oeste 0 -- -- 62
2019-11-19 16:00:00 7.9 9 Oeste 17 Noroeste 0 -- -- 59
2019-11-19 15:00:00 7.5 8 Noroeste 19 Noroeste 0 -- -- 56
2019-11-19 14:00:00 9.4 8 Noroeste 22 Noroeste 0 -- -- 52
2019-11-19 13:00:00 8 12 Noroeste 22 Noroeste 0 -- -- 56
2019-11-19 12:00:00 7.4 10 Norte 21 Noroeste 0 -- -- 60
2019-11-19 11:00:00 5.7 8 Norte 15 Noroeste 0 -- -- 68
2019-11-19 10:00:00 2.4 0 Calma 4 Norte 0 -- -- 82
2019-11-19 09:00:00 -1.4 0 Calma 3 Noroeste 0 -- -- 99
2019-11-19 08:00:00 -3.6 0 Calma 3 Noroeste 0 -- -- 94
2019-11-19 07:00:00 -2.6 0 Calma 6 Noroeste 0 -- -- 88
2019-11-19 06:00:00 -1.1 3 Noroeste 9 Norte 0 -- -- 91
2019-11-19 05:00:00 -0.7 3 Noroeste 13 Noroeste 0 -- -- 87
2019-11-19 04:00:00 0.5 5 Norte 21 Norte 0 -- -- 83
2019-11-19 03:00:00 0.5 4 Norte 14 Norte 0 -- -- 83
2019-11-19 02:00:00 0.5 4 Norte 20 Noroeste 0 -- -- 85
2019-11-19 01:00:00 1 11 Noroeste 19 Noroeste 0 -- -- 85
2019-11-19 00:00:00 1.1 6 Noroeste 13 Noroeste 0 -- -- 86
2019-11-18 23:00:00 1.7 5 Noroeste 22 Norte 0 -- -- 83
2019-11-18 22:00:00 2.3 8 Norte 24 Noroeste 0 -- -- 80
2019-11-18 21:00:00 2.3 8 Norte 19 Noroeste 0 -- -- 80
2019-11-18 20:00:00 2.7 5 Noroeste 20 Noroeste 0 -- -- 79
2019-11-18 19:00:00 3.1 6 Norte 19 Norte 0 -- -- 77
2019-11-18 18:00:00 4.5 9 Norte 28 Norte 0 -- -- 69
2019-11-18 17:00:00 6.6 13 Norte 31 Norte 0 -- -- 63
2019-11-18 16:00:00 7.4 14 Norte 33 Norte 0 -- -- 60
2019-11-18 15:00:00 7.1 16 Norte 35 Norte 0 -- -- 59
2019-11-18 14:00:00 7.1 19 Norte 37 Norte 0 -- -- 60
2019-11-18 13:00:00 6 20 Norte 40 Norte 0 -- -- 68
2019-11-18 12:00:00 5.1 21 Norte 42 Norte 0 -- -- 75
2019-11-18 11:00:00 3.9 19 Norte 35 Nordeste 0 -- -- 84
2019-11-18 10:00:00 2.8 12 Norte 22 Norte 0 -- -- 90
2019-11-18 09:00:00 1.5 12 Norte 27 Norte 0 -- -- 96
2019-11-18 08:00:00 0.8 10 Norte 23 Norte 0 -- -- 96
2019-11-18 07:00:00 1.4 15 Norte 29 Norte 0 -- -- 97
2019-11-18 06:00:00 1.7 13 Norte 26 Norte 0 -- -- 99
2019-11-18 05:00:00 2.1 9 Norte 20 Noroeste 0 -- -- 100
2019-11-18 04:00:00 2.7 6 Norte 15 Norte 0 -- -- 100
2019-11-18 03:00:00 1.7 2 Noroeste 6 Noroeste 0 -- -- 100
2019-11-18 02:00:00 1.9 0 Calma 7 Noroeste 0 -- -- 98
2019-11-18 01:00:00 3.3 0 Calma 12 Oeste 0 -- -- 98
2019-11-18 00:00:00 3.6 3 Oeste 12 Oeste 0 -- -- 97
2019-11-17 23:00:00 4.2 4 Oeste 15 Oeste 0 -- -- 95
2019-11-17 22:00:00 4.2 7 Oeste 31 Oeste 0.4 -- -- 95
2019-11-17 21:00:00 4.2 14 Noroeste 39 Oeste 2.6 -- -- 100
2019-11-17 20:00:00 4.4 6 Oeste 21 Oeste 0.2 -- -- 100
2019-11-17 19:00:00 4.2 3 Noroeste 22 Sur 0 -- -- 100
2019-11-17 18:00:00 3.9 6 Sudoeste 23 Sudoeste 0.4 -- -- 100
2019-11-17 17:00:00 3.5 7 Sudoeste 23 Sudoeste 0 -- -- 99
2019-11-17 16:00:00 3.3 9 Sudoeste 21 Sudoeste 0 -- -- 98
2019-11-17 15:00:00 3.1 6 Sudoeste 19 Sudoeste 0 -- -- 98
2019-11-17 14:00:00 3 6 Sudoeste 22 Sudoeste 0 -- -- 94
2019-11-17 13:00:00 3.7 8 Oeste 26 Oeste 0 -- -- 82
2019-11-17 12:00:00 4.4 10 Oeste 21 Oeste 0 -- -- 78
2019-11-17 11:00:00 3.7 8 Oeste 21 Oeste 0 -- -- 79
2019-11-17 10:00:00 1.7 4 Oeste 12 Oeste 0 -- -- 88
2019-11-17 09:00:00 -1.9 0 Calma 3 Oeste 0 -- -- 99
2019-11-17 08:00:00 -3.8 0 Calma 4 Oeste 0 -- -- 97
2019-11-17 07:00:00 -4.2 0 Calma 2 Oeste 0 -- -- 96
2019-11-17 06:00:00 -4.4 0 Calma 2 Oeste 0 -- -- 94
2019-11-17 05:00:00 -3 0 Calma 6 Oeste 0 -- -- 92
2019-11-17 04:00:00 -1.8 0 Calma 8 Oeste 0 -- -- 90
2019-11-17 03:00:00 -2.2 2 Noroeste 8 Noroeste 0 -- -- 94
2019-11-17 02:00:00 -2.2 2 Noroeste 10 Noroeste 0 -- -- 93
2019-11-17 01:00:00 -3.9 0 Calma 2 Sudoeste 0 -- -- 91
2019-11-17 00:00:00 -2.2 0 Calma 13 Oeste 0 -- -- 86
2019-11-16 23:00:00 -1 0 Calma 8 Noroeste 0 -- -- 87
2019-11-16 22:00:00 -1.6 0 Calma 5 Noroeste 0 -- -- 90
2019-11-16 21:00:00 -0.4 2 Oeste 9 Noroeste 0 -- -- 84
2019-11-16 20:00:00 1.8 2 Noroeste 10 Oeste 0 -- -- 77
2019-11-16 19:00:00 2.9 5 Oeste 12 Oeste 0 -- -- 73
2019-11-16 18:00:00 3.8 6 Noroeste 24 Noroeste 0 -- -- 68
2019-11-16 17:00:00 5.3 11 Noroeste 22 Noroeste 0 -- -- 63
2019-11-16 16:00:00 6.7 11 Noroeste 26 Noroeste 0 -- -- 60
2019-11-16 15:00:00 6.5 16 Noroeste 31 Noroeste 0 -- -- 58
2019-11-16 14:00:00 7.8 9 Noroeste 25 Norte 0 -- -- 59
2019-11-16 13:00:00 7.3 12 Norte 26 Norte 0 -- -- 59
2019-11-16 12:00:00 5.9 12 Norte 24 Norte 0 -- -- 66
2019-11-16 11:00:00 4.7 9 Norte 21 Noroeste 0 -- -- 70
2019-11-16 10:00:00 2.5 9 Norte 15 Norte 0 -- -- 81
2019-11-16 09:00:00 0.2 6 Norte 17 Noroeste 0 -- -- 91
2019-11-16 08:00:00 -0.6 6 Norte 21 Norte 0 -- -- 93
2019-11-16 07:00:00 -0.5 8 Norte 22 Norte 0 -- -- 95
2019-11-16 06:00:00 -1.6 5 Noroeste 10 Noroeste 0 -- -- 98
2019-11-16 05:00:00 -2.5 0 Calma 5 Norte 0 -- -- 95
2019-11-16 04:00:00 -2.3 0 Calma 4 Oeste 0 -- -- 94
2019-11-16 03:00:00 -1 0 Calma 7 Noroeste 0 -- -- 91
2019-11-16 02:00:00 0.3 3 Oeste 6 Oeste 0 -- -- 91
2019-11-16 01:00:00 -0.3 0 Calma 6 Oeste 0 -- -- 93
2019-11-16 00:00:00 -0.6 0 Calma 2 Noroeste 0 -- -- 96